Time;durP1;ratioP1;P1;durP2;ratioP2;P2;SDS_P1;SDS_P2;PMS_P1;PMS_P2;Temp;Humidity;BMP_temperature;BMP_pressure;BME280_temperature;BME280_humidity;BME280_pressure;Samples;Min_cycle;Max_cycle;Signal;HPM_P1;HPM_P2
2021/06/04 00:01:46;;;;;;;4.32;3.92;;;;;;;19.67;51.61;100949.97;6339966;22;20037;-72
2021/06/04 00:04:12;;;;;;;5.57;4.63;;;;;;;19.81;51.82;100951.94;6339911;22;20006;-72
2021/06/04 00:06:38;;;;;;;6.25;4.32;;;;;;;19.82;51.85;100948.72;6339822;22;19999;-73
2021/06/04 00:09:08;;;;;;;4.95;4.43;;;;;;;19.83;51.91;100950.31;6312563;22;20442;-73
2021/06/04 00:11:48;;;;;;;4.45;4.07;;;;;;;19.75;51.95;100960.00;6312613;22;20399;-73
2021/06/04 00:14:20;;;;;;;5.00;4.47;;;;;;;19.71;52.25;100953.59;6312895;22;20357;-73
2021/06/04 00:16:55;;;;;;;4.75;4.25;;;;;;;19.76;51.99;100960.81;6312623;22;20037;-73
2021/06/04 00:19:23;;;;;;;4.07;3.67;;;;;;;19.80;50.93;100968.06;6312638;22;19999;-73
2021/06/04 00:21:53;;;;;;;3.47;3.28;;;;;;;19.69;51.10;100960.84;6339795;22;20442;-73
2021/06/04 00:24:20;;;;;;;3.90;3.50;;;;;;;19.65;50.76;100957.22;6339948;22;20056;-73
2021/06/04 00:26:49;;;;;;;3.17;2.88;;;;;;;19.55;50.71;100961.66;6339737;22;20319;-73
2021/06/04 00:29:16;;;;;;;3.22;2.92;;;;;;;19.50;50.74;100970.53;6312552;22;20077;-73
2021/06/04 00:31:43;;;;;;;3.78;3.47;;;;;;;19.54;50.08;100971.31;6312011;22;19999;-73
2021/06/04 00:34:09;;;;;;;3.50;3.20;;;;;;;19.49;49.73;100954.78;6340178;22;20007;-73
2021/06/04 00:36:34;;;;;;;3.40;2.90;;;;;;;19.48;49.96;100967.28;6340032;22;20005;-74
2021/06/04 00:39:05;;;;;;;2.70;2.50;;;;;;;19.37;49.91;100970.94;6312998;22;20013;-73
2021/06/04 00:41:37;;;;;;;5.78;3.03;;;;;;;19.29;49.90;100972.16;6312326;22;20021;-74
2021/06/04 00:44:03;;;;;;;3.05;2.85;;;;;;;19.37;50.12;100961.66;6312380;22;20002;-73
2021/06/04 00:46:29;;;;;;;2.78;2.63;;;;;;;19.26;50.03;100972.94;6312301;22;20003;-73
2021/06/04 00:48:55;;;;;;;3.28;2.70;;;;;;;19.30;50.18;100968.13;6339663;22;20056;-72
2021/06/04 00:51:35;;;;;;;2.88;2.50;;;;;;;19.36;50.13;100969.31;6312406;22;20476;-73
2021/06/04 00:54:03;;;;;;;2.47;2.35;;;;;;;19.20;50.38;100956.84;6312199;22;19998;-73
2021/06/04 00:56:30;;;;;;;3.05;2.70;;;;;;;19.15;51.05;100962.88;6312272;22;20174;-73
2021/06/04 00:58:56;;;;;;;2.28;2.17;;;;;;;19.10;51.08;100964.88;6312208;22;20085;-73
2021/06/04 01:01:29;;;;;;;3.08;2.47;;;;;;;19.09;51.25;100962.47;6312384;22;20034;-73
2021/06/04 01:04:17;;;;;;;2.70;2.50;;;;;;;19.04;51.54;100963.69;6339830;22;20080;-73
2021/06/04 01:07:04;;;;;;;2.40;2.30;;;;;;;19.13;51.57;100965.31;6339410;22;20415;-73
2021/06/04 01:09:57;;;;;;;3.55;2.65;;;;;;;19.17;51.60;100969.72;6312226;22;20002;-72
2021/06/04 01:12:50;;;;;;;2.70;2.55;;;;;;;19.06;51.90;100957.63;6339608;22;20002;-72
2021/06/04 01:15:43;;;;;;;4.45;3.10;;;;;;;19.08;52.13;100966.50;6312269;22;20044;-72
2021/06/04 01:18:18;;;;;;;3.10;2.80;;;;;;;19.04;52.32;100958.03;6340895;22;19999;-73
2021/06/04 01:21:06;;;;;;;3.40;3.10;;;;;;;19.01;52.55;100961.66;6312867;22;20003;-73
2021/06/04 01:24:01;;;;;;;3.85;3.35;;;;;;;19.04;52.70;100954.41;6312091;22;20010;-72
2021/06/04 01:26:35;;;;;;;3.25;3.05;;;;;;;19.02;52.69;100962.47;6336831;22;20426;-73
2021/06/04 01:29:16;;;;;;;;;;;;;;;18.92;53.46;100963.28;6338464;22;20045;-72
2021/06/04 01:31:46;;;;;;;3.30;3.03;;;;;;;18.84;53.50;100951.97;6337956;22;19898;-73
2021/06/04 01:34:16;;;;;;;4.03;2.72;;;;;;;18.86;53.63;100947.97;6337913;22;20045;-73
2021/06/04 01:36:47;;;;;;;5.25;3.53;;;;;;;18.78;54.34;100942.31;6337367;22;20056;-73
2021/06/04 01:39:18;;;;;;;3.70;3.40;;;;;;;18.84;54.42;100946.34;6339373;22;20410;-72
2021/06/04 01:41:48;;;;;;;4.10;3.45;;;;;;;18.67;54.26;100915.28;6337838;22;19999;-73
2021/06/04 01:44:29;;;;;;;3.42;3.15;;;;;;;18.67;55.01;100930.19;6311868;22;20006;-73
2021/06/04 01:47:01;;;;;;;5.10;3.30;;;;;;;18.57;55.10;100925.31;6339153;22;19995;-72
2021/06/04 01:49:33;;;;;;;4.28;3.22;;;;;;;18.68;54.56;100936.66;6339503;22;20433;-73
2021/06/04 01:52:32;;;;;;;4.43;3.33;;;;;;;18.74;54.43;100923.78;6337769;22;20098;-73
2021/06/04 01:55:09;;;;;;;3.95;3.03;;;;;;;18.56;54.72;100913.25;6334112;22;20411;-73
2021/06/04 01:57:39;;;;;;;4.03;3.05;;;;;;;18.60;54.98;100933.00;6337883;22;20055;-73
2021/06/04 02:00:09;;;;;;;4.25;3.85;;;;;;;18.62;54.69;100927.75;6337673;22;20006;-73
2021/06/04 02:02:35;;;;;;;5.63;3.30;;;;;;;18.59;54.64;100928.56;6331440;22;20044;-72
2021/06/04 02:05:05;;;;;;;3.65;3.35;;;;;;;18.50;54.98;100920.50;6339643;22;20003;-73
2021/06/04 02:07:33;;;;;;;4.60;3.65;;;;;;;18.47;55.07;100921.28;6337033;22;20002;-73
2021/06/04 02:10:01;;;;;;;3.85;3.55;;;;;;;18.48;55.19;100938.97;6339289;22;20306;-73
2021/06/04 02:12:27;;;;;;;4.03;3.72;;;;;;;18.43;55.85;100934.56;6338695;22;20369;-72
2021/06/04 02:15:06;;;;;;;3.55;3.25;;;;;;;18.39;56.08;100930.94;6337637;22;20052;-73
2021/06/04 02:17:54;;;;;;;4.43;3.78;;;;;;;18.48;56.03;100934.19;6312690;22;20026;-72
2021/06/04 02:20:31;;;;;;;4.03;3.63;;;;;;;18.31;55.96;100901.91;6337758;22;20287;-72
2021/06/04 02:23:11;;;;;;;3.95;3.65;;;;;;;18.47;56.09;100923.28;6337604;22;20029;-72
2021/06/04 02:25:43;;;;;;;5.38;4.88;;;;;;;18.57;56.05;100930.97;6337448;22;20516;-73
2021/06/04 02:28:30;;;;;;;6.03;5.40;;;;;;;18.59;56.21;100925.75;6338821;22;20007;-73
2021/06/04 02:30:58;;;;;;;6.38;5.75;;;;;;;18.66;56.11;100936.22;6339290;22;20037;-73
2021/06/04 02:33:43;;;;;;;8.75;7.95;;;;;;;18.62;55.96;100939.03;6337673;22;20341;-73
2021/06/04 02:36:18;;;;;;;5.72;5.13;;;;;;;18.44;56.64;100939.00;6337539;22;20010;-73
2021/06/04 02:38:59;;;;;;;13.70;12.50;;;;;;;18.40;56.70;100935.34;6337667;22;20007;-73
2021/06/04 02:41:38;;;;;;;13.50;12.25;;;;;;;18.50;56.78;100943.03;6339317;22;20488;-73
2021/06/04 02:44:12;;;;;;;9.90;9.00;;;;;;;18.39;56.40;100922.47;6337540;22;20014;-74
2021/06/04 02:46:48;;;;;;;6.63;5.85;;;;;;;18.44;56.20;100933.34;6337844;22;20314;-73
2021/06/04 02:49:17;;;;;;;5.03;4.63;;;;;;;18.34;55.91;100934.13;6337416;22;20003;-73
2021/06/04 02:51:43;;;;;;;6.40;5.90;;;;;;;18.21;55.66;100902.69;6337560;22;20010;-73
2021/06/04 02:54:13;;;;;;;5.32;4.20;;;;;;;18.41;54.89;100938.97;6337345;22;20048;-74
2021/06/04 02:56:43;;;;;;;4.95;3.78;;;;;;;18.38;54.47;100939.78;6339303;22;20003;-73
2021/06/04 02:59:21;;;;;;;3.83;3.53;;;;;;;18.31;54.71;100941.34;6337457;22;20006;-73
2021/06/04 03:02:12;;;;;;;5.13;3.67;;;;;;;18.28;54.59;100942.16;6337531;22;20049;-73
2021/06/04 03:04:42;;;;;;;6.10;3.38;;;;;;;18.15;54.37;100935.25;6337283;22;20052;-73
2021/06/04 03:07:29;;;;;;;4.03;3.55;;;;;;;18.15;55.00;100938.06;6339745;22;19999;-73
2021/06/04 03:09:56;;;;;;;4.70;4.35;;;;;;;18.12;54.97;100944.53;6337752;22;20040;-73
2021/06/04 03:12:25;;;;;;;6.40;5.80;;;;;;;18.18;54.49;100931.66;6337310;22;20010;-73
2021/06/04 03:14:53;;;;;;;4.10;3.80;;;;;;;18.26;54.11;100950.19;6339171;22;20486;-73
2021/06/04 03:17:21;;;;;;;6.40;3.40;;;;;;;18.27;54.00;100949.00;6337346;22;20320;-73
2021/06/04 03:19:47;;;;;;;6.32;4.75;;;;;;;18.18;53.88;100948.56;6338538;22;20398;-73
2021/06/04 03:22:40;;;;;;;6.97;6.38;;;;;;;18.09;54.11;100947.31;6339118;22;20004;-73
2021/06/04 03:25:24;;;;;;;6.32;5.57;;;;;;;18.08;54.53;100937.25;6335104;22;20011;-74
2021/06/04 03:27:50;;;;;;;5.15;4.65;;;;;;;18.03;54.91;100935.63;6313180;22;20014;-73
2021/06/04 03:30:21;;;;;;;6.25;4.63;;;;;;;18.04;54.86;100937.22;6312990;22;19995;-73
2021/06/04 03:32:47;;;;;;;7.15;4.45;;;;;;;18.05;54.93;100930.38;6340400;22;20073;-71
2021/06/04 03:35:13;;;;;;;4.55;4.15;;;;;;;17.92;55.03;100926.31;6340261;22;20026;-72
2021/06/04 03:37:39;;;;;;;6.47;4.70;;;;;;;17.98;54.91;100938.81;6313909;22;20006;-72
2021/06/04 03:40:14;;;;;;;3.75;3.45;;;;;;;18.15;54.84;100938.06;6341277;22;20009;-72
2021/06/04 03:42:42;;;;;;;3.60;3.30;;;;;;;18.18;54.81;100947.75;6313219;22;20068;-72
2021/06/04 03:45:10;;;;;;;9.68;4.53;;;;;;;18.17;55.10;100946.97;6340538;22;19999;-72
2021/06/04 03:47:36;;;;;;;4.47;3.03;;;;;;;18.16;55.51;100944.50;6312612;22;19999;-72
2021/06/04 03:50:04;;;;;;;5.63;3.60;;;;;;;18.16;55.40;100939.69;6340259;22;19998;-72
2021/06/04 03:52:30;;;;;;;12.68;4.40;;;;;;;18.13;55.27;100928.44;6312738;22;20003;-72
2021/06/04 03:54:58;;;;;;;6.75;4.20;;;;;;;18.27;55.03;100940.56;6313024;22;20369;-72
2021/06/04 03:57:28;;;;;;;4.15;3.75;;;;;;;18.25;55.24;100936.50;6312680;22;20406;-72
2021/06/04 03:59:54;;;;;;;12.73;4.38;;;;;;;18.45;54.64;100936.97;6340198;22;19995;-72
2021/06/04 04:02:23;;;;;;;5.95;4.13;;;;;;;18.91;53.72;100936.25;6339963;22;19999;-72
2021/06/04 04:04:50;;;;;;;5.75;3.92;;;;;;;19.32;52.41;100940.28;6313096;22;20041;-72
2021/06/04 04:07:16;;;;;;;4.65;3.22;;;;;;;19.71;50.87;100936.66;6339898;22;20001;-72
2021/06/04 04:09:41;;;;;;;4.07;3.50;;;;;;;20.11;49.99;100942.97;6312730;22;20418;-72
2021/06/04 04:12:08;;;;;;;4.95;3.50;;;;;;;20.50;48.80;100944.81;6312671;22;20020;-72
2021/06/04 04:14:34;;;;;;;7.85;3.45;;;;;;;20.87;47.49;100950.63;6312371;22;20005;-72
2021/06/04 04:17:01;;;;;;;3.80;3.33;;;;;;;21.27;46.81;100939.81;6312474;22;19999;-72
2021/06/04 04:19:26;;;;;;;5.47;3.75;;;;;;;21.59;45.90;100941.56;6312256;22;20003;-72
2021/06/04 04:21:55;;;;;;;4.97;3.78;;;;;;;21.90;45.59;100948.91;6312420;22;20148;-72
2021/06/04 04:24:28;;;;;;;6.68;2.63;;;;;;;22.22;44.66;100948.53;6339468;22;20418;-72
2021/06/04 04:26:54;;;;;;;3.53;3.17;;;;;;;22.70;43.83;100955.19;6312370;22;20034;-73
2021/06/04 04:29:19;;;;;;;6.30;3.05;;;;;;;23.10;43.10;100966.75;6285894;22;20006;-74
2021/06/04 04:31:48;;;;;;;4.40;3.95;;;;;;;23.43;42.02;100962.13;6312294;22;20410;-73
2021/06/04 04:34:14;;;;;;;6.68;3.60;;;;;;;23.72;42.23;100968.13;6312227;22;20026;-74
2021/06/04 04:36:46;;;;;;;7.85;3.97;;;;;;;24.04;41.46;100971.16;6339782;22;20041;-73
2021/06/04 04:39:20;;;;;;;5.35;3.40;;;;;;;24.64;40.29;100964.63;6311931;22;20422;-73
2021/06/04 04:41:47;;;;;;;6.90;3.30;;;;;;;24.85;39.74;100975.53;6312274;22;20005;-73
2021/06/04 04:44:14;;;;;;;6.50;3.60;;;;;;;25.29;39.14;100971.22;6339797;22;20003;-73
2021/06/04 04:46:40;;;;;;;8.35;3.88;;;;;;;25.62;38.03;100971.22;6339281;22;19999;-73
2021/06/04 04:49:05;;;;;;;4.95;3.38;;;;;;;25.90;37.89;100968.84;6339958;22;20407;-73
2021/06/04 04:51:33;;;;;;;2.92;2.70;;;;;;;26.10;37.21;100960.94;6339272;22;19995;-74
2021/06/04 04:53:59;;;;;;;4.47;3.10;;;;;;;26.25;36.78;100962.09;6312011;22;20009;-74
2021/06/04 04:56:26;;;;;;;7.68;3.38;;;;;;;26.45;36.71;100964.81;6339271;22;19995;-73
2021/06/04 04:58:53;;;;;;;8.23;3.38;;;;;;;26.73;36.40;100954.56;6339524;22;20002;-73
2021/06/04 05:01:20;;;;;;;3.08;2.70;;;;;;;27.01;36.11;100978.56;6311546;22;20064;-74
2021/06/04 05:03:46;;;;;;;5.30;3.20;;;;;;;26.99;36.03;100963.94;6311936;22;19998;-74
2021/06/04 05:06:12;;;;;;;4.10;3.20;;;;;;;27.43;35.27;100975.53;6311933;22;20003;-73
2021/06/04 05:08:38;;;;;;;4.85;3.65;;;;;;;27.67;35.37;100973.88;6311950;22;20403;-75
2021/06/04 05:11:05;;;;;;;3.67;3.40;;;;;;;27.27;36.36;100972.81;6312031;22;20095;-73
2021/06/04 05:13:31;;;;;;;6.80;3.85;;;;;;;26.49;38.04;100976.94;6339004;22;19994;-73
2021/06/04 05:15:59;;;;;;;5.18;3.28;;;;;;;27.26;36.85;100979.81;6311916;22;20025;-73
2021/06/04 05:18:25;;;;;;;5.95;3.40;;;;;;;27.67;36.14;100982.47;6339089;22;20006;-74
2021/06/04 05:20:53;;;;;;;5.55;3.67;;;;;;;28.14;34.92;100986.53;6310261;22;20002;-74
2021/06/04 05:23:19;;;;;;;5.32;3.45;;;;;;;28.69;34.50;100989.78;6311461;22;20002;-74
2021/06/04 05:25:51;;;;;;;6.63;3.45;;;;;;;29.03;33.26;100980.25;6339464;22;20011;-74
2021/06/04 05:28:20;;;;;;;5.97;3.33;;;;;;;29.45;32.52;100991.97;6339534;22;19999;-74
2021/06/04 05:30:48;;;;;;;8.52;4.15;;;;;;;28.86;33.14;100981.72;6311545;22;19999;-74
2021/06/04 05:33:17;;;;;;;4.88;3.63;;;;;;;29.31;32.84;100984.00;6338696;22;20005;-74
2021/06/04 05:35:43;;;;;;;5.57;3.63;;;;;;;29.42;32.43;100960.63;6339254;22;20418;-74
2021/06/04 05:38:09;;;;;;;4.32;3.53;;;;;;;29.85;31.71;100970.25;6311443;22;20005;-74
2021/06/04 05:40:41;;;;;;;4.20;3.60;;;;;;;30.15;31.87;100982.81;6311798;22;20322;-74
2021/06/04 05:43:10;;;;;;;3.25;3.00;;;;;;;30.39;31.39;100988.72;6311288;22;20002;-73
2021/06/04 05:45:39;;;;;;;3.92;3.17;;;;;;;30.39;31.06;100992.38;6311555;22;20003;-73
2021/06/04 05:48:05;;;;;;;3.40;2.92;;;;;;;30.11;31.56;100994.47;6311567;22;20379;-74
2021/06/04 05:50:36;;;;;;;3.95;3.28;;;;;;;30.45;31.03;100995.38;6339147;22;19995;-75
2021/06/04 05:53:03;;;;;;;3.33;2.97;;;;;;;30.65;30.81;100997.75;6338607;22;20406;-75
2021/06/04 05:55:31;;;;;;;7.18;3.25;;;;;;;30.56;30.85;100983.41;6311458;22;20003;-75
2021/06/04 05:57:57;;;;;;;8.55;2.78;;;;;;;30.38;31.23;100998.59;6311460;22;20003;-75
2021/06/04 06:00:35;;;;;;;3.75;2.53;;;;;;;30.24;31.34;101009.44;6285887;22;20030;-74
2021/06/04 06:03:02;;;;;;;3.13;2.70;;;;;;;29.44;32.25;101003.94;6339134;22;20020;-74
2021/06/04 06:05:28;;;;;;;3.20;2.90;;;;;;;29.94;32.07;101008.34;6311544;22;19999;-74
2021/06/04 06:07:54;;;;;;;4.03;2.83;;;;;;;30.37;31.46;101000.69;6311471;22;20353;-74
2021/06/04 06:10:21;;;;;;;5.35;2.75;;;;;;;30.01;32.23;101019.47;6311663;22;20311;-74
2021/06/04 06:12:53;;;;;;;7.10;2.95;;;;;;;30.11;32.01;101020.28;6338422;22;20010;-74
2021/06/04 06:15:20;;;;;;;5.65;3.15;;;;;;;29.59;33.41;101022.16;6311634;22;20007;-74
2021/06/04 06:17:45;;;;;;;3.00;2.65;;;;;;;29.49;33.62;101023.38;6311097;22;19998;-74
2021/06/04 06:20:15;;;;;;;6.30;3.35;;;;;;;29.27;33.51;101023.47;6339050;22;20070;-74
2021/06/04 06:22:41;;;;;;;7.15;4.70;;;;;;;29.77;32.53;101026.31;6338715;22;20015;-74
2021/06/04 06:25:16;;;;;;;5.60;4.07;;;;;;;29.97;32.03;101026.66;6318696;22;20371;-74
2021/06/04 06:27:43;;;;;;;7.55;4.38;;;;;;;29.01;33.09;101020.03;6337242;22;20151;-74
2021/06/04 06:30:14;;;;;;;7.57;3.65;;;;;;;29.08;32.99;101021.78;6337069;22;20010;-74
2021/06/04 06:32:40;;;;;;;3.95;3.15;;;;;;;28.95;32.69;101025.56;6337135;22;20003;-74
2021/06/04 06:35:06;;;;;;;3.60;3.30;;;;;;;29.66;31.39;101024.69;6338234;22;20021;-74
2021/06/04 06:37:32;;;;;;;4.57;3.15;;;;;;;28.63;32.87;101015.34;6337508;22;20052;-74
2021/06/04 06:39:57;;;;;;;3.83;3.17;;;;;;;29.48;31.65;101018.91;6338492;22;20003;-74
2021/06/04 06:42:23;;;;;;;5.82;2.92;;;;;;;28.83;32.45;101022.78;6337492;22;20030;-74
2021/06/04 06:44:48;;;;;;;10.85;3.70;;;;;;;28.77;32.66;101024.66;6337500;22;20007;-74
2021/06/04 06:47:14;;;;;;;5.90;4.05;;;;;;;29.26;31.73;101029.69;6338639;22;20287;-74
2021/06/04 06:49:40;;;;;;;5.93;4.63;;;;;;;29.61;31.55;101036.78;6338180;22;20074;-74
2021/06/04 06:52:09;;;;;;;5.30;3.90;;;;;;;29.47;31.39;101040.25;6338110;22;20065;-75
2021/06/04 06:54:38;;;;;;;11.43;3.55;;;;;;;29.71;31.45;101035.53;6340538;22;20066;-73
2021/06/04 06:57:05;;;;;;;9.23;3.50;;;;;;;29.87;30.45;101031.59;6340211;22;19994;-74
2021/06/04 06:59:34;;;;;;;4.53;3.90;;;;;;;29.87;30.84;101036.53;6340562;22;20040;-74
2021/06/04 07:02:04;;;;;;;4.97;3.70;;;;;;;29.30;31.99;101039.72;6339203;22;20006;-74
2021/06/04 07:04:30;;;;;;;4.25;3.72;;;;;;;28.64;32.70;101039.84;6339029;22;20017;-74
2021/06/04 07:06:56;;;;;;;5.57;3.85;;;;;;;28.10;33.69;101041.00;6340486;22;20022;-75
2021/06/04 07:09:24;;;;;;;4.82;4.05;;;;;;;28.05;33.46;101043.66;6339029;22;20502;-74
2021/06/04 07:11:54;;;;;;;4.25;3.55;;;;;;;28.07;33.45;101041.97;6340358;22;20018;-74
2021/06/04 07:14:23;;;;;;;4.93;3.15;;;;;;;29.22;31.98;101044.16;6340177;22;20010;-74
2021/06/04 07:16:50;;;;;;;6.85;4.05;;;;;;;29.31;31.65;101040.53;6338865;22;20064;-74
2021/06/04 07:19:16;;;;;;;5.05;3.63;;;;;;;29.15;31.23;101045.25;6338693;22;20006;-74
2021/06/04 07:21:44;;;;;;;6.75;3.50;;;;;;;29.67;30.65;101055.00;6338798;22;20086;-74
2021/06/04 07:24:13;;;;;;;11.07;4.85;;;;;;;30.00;29.84;101049.47;6338401;22;20003;-74
2021/06/04 07:26:40;;;;;;;3.92;3.33;;;;;;;30.72;28.84;101049.91;6340280;22;20380;-74
2021/06/04 07:29:06;;;;;;;7.18;4.10;;;;;;;30.38;29.87;101053.16;6312845;22;20079;-74
2021/06/04 07:31:31;;;;;;;6.88;4.20;;;;;;;29.81;30.21;101059.31;6340458;22;20402;-74
2021/06/04 07:33:57;;;;;;;3.60;3.17;;;;;;;30.44;28.89;101056.97;6339971;22;20399;-74
2021/06/04 07:36:30;;;;;;;3.20;2.75;;;;;;;30.65;28.30;101055.19;6340252;22;20040;-74
2021/06/04 07:38:57;;;;;;;5.05;3.00;;;;;;;31.48;27.42;101052.84;6312805;22;20060;-74
2021/06/04 07:41:23;;;;;;;3.35;3.13;;;;;;;31.86;26.36;101060.00;6340104;22;20006;-74
2021/06/04 07:43:49;;;;;;;3.67;3.13;;;;;;;32.05;26.25;101055.69;6312746;22;20007;-74
2021/06/04 07:46:17;;;;;;;4.47;3.88;;;;;;;32.06;26.70;101058.06;6339855;22;20041;-74
2021/06/04 07:48:43;;;;;;;4.82;3.50;;;;;;;31.56;27.33;101059.81;6312736;22;20449;-74
2021/06/04 07:51:13;;;;;;;9.88;3.58;;;;;;;32.60;26.03;101061.00;6312475;22;20090;-74
2021/06/04 07:53:39;;;;;;;6.22;3.72;;;;;;;32.03;27.90;101049.63;6312853;22;20014;-74
2021/06/04 07:56:08;;;;;;;5.18;3.63;;;;;;;32.32;28.50;101052.56;6312634;22;20407;-74
2021/06/04 07:58:34;;;;;;;4.50;3.38;;;;;;;32.63;27.82;101056.31;6312671;22;20011;-74
2021/06/04 08:01:02;;;;;;;4.25;3.22;;;;;;;32.91;26.80;101063.38;6312612;22;20007;-75
2021/06/04 08:03:29;;;;;;;6.38;3.28;;;;;;;32.22;27.75;101065.44;6312506;22;20014;-73
2021/06/04 08:05:55;;;;;;;4.20;2.90;;;;;;;32.61;27.46;101067.53;6312403;22;20064;-74
2021/06/04 08:08:22;;;;;;;3.15;2.88;;;;;;;33.51;26.39;101073.56;6340053;22;20073;-74
2021/06/04 08:10:47;;;;;;;3.22;2.90;;;;;;;33.65;26.00;101074.78;6312717;22;20410;-74
2021/06/04 08:13:15;;;;;;;3.85;3.28;;;;;;;32.84;25.84;101075.28;6339536;22;20048;-74
2021/06/04 08:15:51;;;;;;;4.00;2.92;;;;;;;32.65;26.66;101068.91;6340308;22;20070;-74
2021/06/04 08:18:20;;;;;;;3.38;2.70;;;;;;;31.49;28.06;101071.69;6312304;22;19998;-73
2021/06/04 08:20:47;;;;;;;7.85;2.30;;;;;;;30.74;28.67;101081.06;6311894;22;19999;-73
2021/06/04 08:23:16;;;;;;;2.50;2.28;;;;;;;31.03;27.73;101075.53;6339840;22;20007;-73
2021/06/04 08:25:46;;;;;;;2.50;2.30;;;;;;;30.62;28.19;101071.28;6326613;22;20010;-73
2021/06/04 08:28:12;;;;;;;4.40;2.30;;;;;;;31.30;27.83;101077.53;6338491;22;20310;-73
2021/06/04 08:30:38;;;;;;;5.72;2.60;;;;;;;30.67;27.95;101076.38;6338293;22;20075;-73
2021/06/04 08:33:04;;;;;;;2.60;2.03;;;;;;;30.72;27.40;101072.88;6338460;22;20022;-74
2021/06/04 08:35:31;;;;;;;2.50;1.98;;;;;;;31.40;26.61;101069.66;6337900;22;19999;-74
2021/06/04 08:37:57;;;;;;;3.70;2.10;;;;;;;31.79;26.16;101066.88;6338248;22;20029;-74
2021/06/04 08:40:31;;;;;;;2.35;2.00;;;;;;;31.63;26.65;101079.59;6312030;22;20011;-73
2021/06/04 08:43:25;;;;;;;3.20;1.98;;;;;;;32.14;26.00;101069.22;6339991;22;19998;-73
2021/06/04 08:46:04;;;;;;;2.85;1.90;;;;;;;32.26;25.64;101071.81;6327929;22;20022;-73
2021/06/04 08:48:44;;;;;;;2.70;2.35;;;;;;;31.48;26.44;101072.97;6337987;22;20097;-74
2021/06/04 08:51:38;;;;;;;2.10;1.95;;;;;;;31.45;26.89;101068.19;6338345;22;20387;-73
2021/06/04 08:54:36;;;;;;;8.40;2.60;;;;;;;32.07;25.99;101071.19;6338224;22;20026;-72
2021/06/04 08:57:33;;;;;;;2.35;2.15;;;;;;;32.49;24.87;101064.47;6338341;22;20433;-75
2021/06/04 09:00:10;;;;;;;4.00;2.10;;;;;;;32.78;23.95;101072.31;6337945;22;20369;-74
2021/06/04 09:02:50;;;;;;;3.25;2.05;;;;;;;31.16;25.82;101069.59;6337967;22;20003;-74
2021/06/04 09:05:42;;;;;;;2.85;2.20;;;;;;;31.09;26.23;101078.53;6338234;22;20002;-74
2021/06/04 09:08:22;;;;;;;2.40;2.20;;;;;;;30.56;27.64;101064.59;6338169;22;19999;-74
2021/06/04 09:11:15;;;;;;;3.72;2.70;;;;;;;30.71;27.71;101070.50;6339420;22;19999;-73
2021/06/04 09:13:40;;;;;;;2.77;2.13;;;;;;;31.27;26.75;101078.50;6339110;22;20075;-74
2021/06/04 09:16:27;;;;;;;2.42;1.80;;;;;;;32.35;24.64;101047.94;6337623;22;20344;-74
2021/06/04 09:19:05;;;;;;;1.95;1.85;;;;;;;32.15;24.18;101071.59;6339141;22;20415;-74
2021/06/04 09:21:36;;;;;;;3.45;2.15;;;;;;;31.51;25.16;101060.50;6337791;22;20439;-74
2021/06/04 09:24:07;;;;;;;3.38;2.17;;;;;;;31.59;25.16;101047.34;6337880;22;20003;-73
2021/06/04 09:26:33;;;;;;;1.95;1.85;;;;;;;32.34;24.29;101075.91;6337711;22;20015;-74
2021/06/04 09:29:13;;;;;;;1.42;1.33;;;;;;;32.82;23.75;101075.00;6339297;22;20073;-73
2021/06/04 09:31:43;;;;;;;3.50;2.20;;;;;;;32.37;24.51;101074.16;6337506;22;20055;-74
2021/06/04 09:34:27;;;;;;;4.47;2.03;;;;;;;32.48;24.26;101071.47;6337764;22;20139;-74
2021/06/04 09:36:59;;;;;;;1.45;1.45;;;;;;;32.31;23.96;101082.66;6337690;22;19994;-74
2021/06/04 09:39:34;;;;;;;2.90;1.90;;;;;;;32.52;23.82;101074.19;6337882;22;20029;-74
2021/06/04 09:42:22;;;;;;;3.70;1.70;;;;;;;32.28;24.66;101074.19;6339476;22;20037;-74
2021/06/04 09:45:10;;;;;;;1.85;1.75;;;;;;;32.99;24.08;101069.56;6337414;22;20009;-74
2021/06/04 09:47:59;;;;;;;1.83;1.73;;;;;;;33.23;23.30;101061.56;6336756;22;20041;-75
2021/06/04 09:50:39;;;;;;;2.28;1.60;;;;;;;34.20;22.44;101074.00;6337724;22;20005;-74
2021/06/04 09:53:14;;;;;;;1.92;1.83;;;;;;;33.57;22.21;101077.31;6337741;22;20056;-73
2021/06/04 09:56:02;;;;;;;2.67;1.65;;;;;;;33.03;22.92;101068.06;6337653;22;20381;-74
2021/06/04 09:58:29;;;;;;;1.20;1.10;;;;;;;32.70;22.26;101059.56;6337724;22;20037;-72
2021/06/04 10:00:55;;;;;;;1.50;1.40;;;;;;;33.46;22.10;101064.84;6337137;22;20003;-74
2021/06/04 10:03:31;;;;;;;3.70;1.38;;;;;;;32.91;22.10;101063.38;6337577;22;20014;-74
2021/06/04 10:06:10;;;;;;;3.80;2.28;;;;;;;32.00;23.14;101076.50;6337117;22;19998;-74
2021/06/04 10:08:48;;;;;;;1.48;1.38;;;;;;;32.04;23.13;101059.84;6337574;22;20005;-74
2021/06/04 10:11:21;;;;;;;1.83;1.27;;;;;;;31.84;23.52;101062.56;6337688;22;20003;-74
2021/06/04 10:14:05;;;;;;;1.40;1.25;;;;;;;31.64;23.50;101066.00;6337486;22;19999;-74
2021/06/04 10:19:25;;;;;;;3.58;1.50;;;;;;;31.81;22.85;101061.47;6339405;22;20033;-74
2021/06/04 10:22:09;;;;;;;3.53;1.40;;;;;;;32.49;22.36;101057.88;6338806;22;19994;-74
2021/06/04 10:24:42;;;;;;;1.52;1.42;;;;;;;32.22;23.05;101053.13;6337354;22;20083;-74
2021/06/04 10:27:10;;;;;;;;;;;;;;;32.04;23.07;101054.88;6337772;22;20403;-74
2021/06/04 10:29:35;;;;;;;3.00;1.80;;;;;;;31.72;23.72;101059.41;6337540;22;19940;-74
2021/06/04 10:32:23;;;;;;;3.63;1.90;;;;;;;31.94;23.93;101055.44;6337320;22;20044;-74
2021/06/04 10:35:11;;;;;;;2.00;1.75;;;;;;;31.99;24.01;101046.16;6337344;22;20048;-75
2021/06/04 10:37:44;;;;;;;1.45;1.23;;;;;;;31.60;24.14;101051.81;6337651;22;19998;-74
2021/06/04 10:40:19;;;;;;;3.13;1.70;;;;;;;32.10;23.89;101051.34;6339140;22;20411;-73
2021/06/04 10:42:56;;;;;;;1.73;1.60;;;;;;;32.04;23.94;101049.13;6337355;22;19999;-74
2021/06/04 10:45:27;;;;;;;2.70;1.83;;;;;;;30.56;25.78;101055.97;6339323;22;20002;-74
2021/06/04 10:48:18;;;;;;;2.33;1.70;;;;;;;31.38;25.58;101048.44;6338568;22;20358;-74
2021/06/04 10:50:49;;;;;;;2.85;2.00;;;;;;;30.71;25.99;101044.66;6337474;22;20003;-75
2021/06/04 10:53:30;;;;;;;1.60;1.50;;;;;;;31.03;25.80;101034.50;6339144;22;20014;-74
2021/06/04 10:56:13;;;;;;;1.85;1.75;;;;;;;31.08;26.21;101042.47;6338260;22;19995;-74
2021/06/04 10:58:38;;;;;;;5.95;2.03;;;;;;;31.50;25.34;101038.78;6339171;22;20078;-74
2021/06/04 11:01:10;;;;;;;5.95;1.92;;;;;;;31.23;25.93;101045.44;6336569;22;20026;-74
2021/06/04 11:03:48;;;;;;;1.77;1.67;;;;;;;30.94;26.55;101043.16;6337031;22;20415;-73
2021/06/04 11:06:29;;;;;;;3.10;1.85;;;;;;;31.04;26.87;101044.72;6337239;22;20009;-73
2021/06/04 11:09:06;;;;;;;3.08;1.75;;;;;;;30.92;27.31;101042.84;6337040;22;20003;-73
2021/06/04 11:12:04;;;;;;;2.55;1.92;;;;;;;31.86;26.54;101032.03;6337494;22;20005;-73
2021/06/04 11:14:43;;;;;;;4.93;2.00;;;;;;;31.46;26.76;101032.41;6286654;22;20034;-73
2021/06/04 11:17:31;;;;;;;7.35;2.20;;;;;;;30.65;28.50;101029.34;6338268;22;20519;-73
2021/06/04 11:20:20;;;;;;;2.42;1.65;;;;;;;31.01;28.11;101029.25;6337207;22;20010;-73
2021/06/04 11:22:50;;;;;;;2.75;1.70;;;;;;;30.46;29.22;101037.97;6337219;22;20002;-73
2021/06/04 11:25:45;;;;;;;2.40;1.85;;;;;;;30.67;28.51;101030.44;6336575;22;20358;-73
2021/06/04 11:28:26;;;;;;;2.53;1.83;;;;;;;30.42;29.00;101030.81;6338190;22;20431;-74
2021/06/04 11:30:54;;;;;;;2.58;2.30;;;;;;;30.21;29.50;101019.03;6337099;22;20058;-73
2021/06/04 11:33:27;;;;;;;1.83;1.65;;;;;;;30.88;29.13;101027.84;6337110;22;20029;-73
2021/06/04 11:36:18;;;;;;;3.38;2.08;;;;;;;30.67;29.47;101018.94;6336976;22;20410;-74
2021/06/04 11:38:53;;;;;;;3.05;2.00;;;;;;;30.64;29.94;101019.91;6337037;22;20006;-73
2021/06/04 11:41:23;;;;;;;5.43;2.17;;;;;;;30.32;30.27;101026.38;6338440;22;19999;-74
2021/06/04 11:43:59;;;;;;;3.55;1.55;;;;;;;30.27;29.87;101019.97;6340402;22;20089;-73
2021/06/04 11:46:29;;;;;;;2.92;2.28;;;;;;;29.80;30.71;101008.16;6340238;22;20032;-73
2021/06/04 11:49:08;;;;;;;6.13;2.38;;;;;;;29.78;30.35;101010.72;6338516;22;20011;-74
2021/06/04 11:51:50;;;;;;;3.28;2.05;;;;;;;29.97;29.63;100995.09;6340452;22;19995;-73